Time;durP1;ratioP1;P1;durP2;ratioP2;P2;SDS_P1;SDS_P2;PMS_P1;PMS_P2;Temp;Humidity;BMP_temperature;BMP_pressure;BME280_temperature;BME280_humidity;BME280_pressure;Samples;Min_cycle;Max_cycle;Signal;HPM_P1;HPM_P2
2022/05/24 00:00:10;;;;;;;;;;;19.70;91.30;19.80;98692.00;;;;342952;28;92179;-90
2022/05/24 00:00:24;;;;;;;;;;;19.70;91.40;19.90;98698.00;;;;342084;28;83301;-89
2022/05/24 00:00:36;;;;;;;;;;;19.70;91.50;19.90;98699.00;;;;342998;28;90447;-89
2022/05/24 00:00:49;;;;;;;;;;;19.70;91.50;19.90;98691.00;;;;344022;28;83270;-90
2022/05/24 00:01:00;;;;;;;;;;;19.70;91.50;19.90;98696.00;;;;344056;28;92361;-90
2022/05/24 00:01:12;;;;;;;;;;;19.70;91.50;19.90;98697.00;;;;344638;28;83210;-89
2022/05/24 00:01:24;;;;;;;;;;;19.70;91.50;19.80;98699.00;;;;344095;28;90301;-90
2022/05/24 00:01:36;;;;;;;;;;;19.70;91.40;19.80;98698.00;;;;343392;28;83285;-90
2022/05/24 00:01:48;;;;;;;;;;;19.70;91.40;19.80;98700.00;;;;342800;28;92375;-90
2022/05/24 00:01:59;;;;;;;;;;;19.70;91.40;19.80;98695.00;;;;344750;28;83401;-89
2022/05/24 00:02:12;;;;;;;;;;;19.70;91.40;19.80;98696.00;;;;345610;28;91747;-90
2022/05/24 00:02:24;;;;;;;;;;;19.70;91.40;19.80;98695.00;;;;344603;28;83563;-89
2022/05/24 00:02:35;;;;;;;;;;;19.70;91.40;19.80;98702.00;;;;344274;28;91506;-89
2022/05/24 00:02:47;;;;;;;;;;;19.60;91.40;19.80;98695.00;;;;344814;28;83256;-89
2022/05/24 00:03:00;;;;;;;;;;;19.60;91.40;19.70;98692.00;;;;342882;28;90567;-89
2022/05/24 00:03:12;;;;;;;;;;;19.70;91.50;19.80;98697.00;;;;342011;28;83373;-89
2022/05/24 00:03:24;;;;;;;;;;;19.60;91.50;19.80;98698.00;;;;342959;28;91374;-89
2022/05/24 00:03:37;;;;;;;;;;;19.70;91.50;19.80;98696.00;;;;344628;28;83477;-89
2022/05/24 00:03:48;;;;;;;;;;;19.70;91.50;19.80;98694.00;;;;342600;28;91490;-89
2022/05/24 00:04:00;;;;;;;;;;;19.70;91.50;19.80;98694.00;;;;344790;28;82510;-89
2022/05/24 00:04:12;;;;;;;;;;;19.60;91.50;19.70;98694.00;;;;345639;28;90477;-89
2022/05/24 00:04:24;;;;;;;;;;;19.60;91.60;19.80;98692.00;;;;343268;28;82582;-89
2022/05/24 00:04:36;;;;;;;;;;;19.60;91.60;19.80;98694.00;;;;344386;28;90099;-89
2022/05/24 00:04:48;;;;;;;;;;;19.60;91.50;19.70;98695.00;;;;343417;28;82389;-89
2022/05/24 00:05:00;;;;;;;;;;;19.60;91.40;19.70;98693.00;;;;342900;28;91585;-90
2022/05/24 00:05:12;;;;;;;;;;;19.60;91.40;19.70;98704.00;;;;342007;28;83410;-90
2022/05/24 00:05:25;;;;;;;;;;;19.60;91.40;19.70;98696.00;;;;341603;28;91762;-90
2022/05/24 00:05:37;;;;;;;;;;;19.60;91.50;19.80;98697.00;;;;344706;28;83405;-89
2022/05/24 00:05:49;;;;;;;;;;;19.60;91.50;19.80;98703.00;;;;344264;28;91557;-89
2022/05/24 00:06:01;;;;;;;;;;;19.60;91.50;19.90;98696.00;;;;341976;28;82566;-90
2022/05/24 00:06:13;;;;;;;;;;;19.60;91.60;19.90;98703.00;;;;341519;28;90406;-90
2022/05/24 00:06:29;;;;;;;;;;;19.60;91.60;19.80;98702.00;;;;344667;28;83345;-90
2022/05/24 00:06:41;;;;;;;;;;;19.60;91.60;19.80;98708.00;;;;344532;28;91823;-89
2022/05/24 00:06:53;;;;;;;;;;;19.60;91.60;19.80;98699.00;;;;346021;28;83348;-89
2022/05/24 00:07:05;;;;;;;;;;;19.60;91.60;19.70;98700.00;;;;344361;28;90317;-89
2022/05/24 00:07:16;;;;;;;;;;;19.60;91.60;19.80;98700.00;;;;343236;28;83415;-89
2022/05/24 00:07:30;;;;;;;;;;;19.60;91.60;19.80;98699.00;;;;344385;28;90236;-89
2022/05/24 00:07:42;;;;;;;;;;;19.60;91.60;19.80;98700.00;;;;343157;28;84064;-89
2022/05/24 00:07:53;;;;;;;;;;;19.60;91.60;19.80;98700.00;;;;344304;28;90855;-89
2022/05/24 00:08:06;;;;;;;;;;;19.60;91.60;19.90;98710.00;;;;343338;28;83334;-89
2022/05/24 00:08:17;;;;;;;;;;;19.60;91.50;20.00;98709.00;;;;341533;28;91498;-89
2022/05/24 00:08:29;;;;;;;;;;;19.60;91.40;19.90;98705.00;;;;341995;28;83441;-90
2022/05/24 00:08:41;;;;;;;;;;;19.60;91.30;19.70;98704.00;;;;341577;28;91782;-89
2022/05/24 00:08:53;;;;;;;;;;;19.60;91.20;19.60;98705.00;;;;341915;28;82594;-90
2022/05/24 00:09:05;;;;;;;;;;;19.60;91.20;19.60;98701.00;;;;344250;28;90567;-89
2022/05/24 00:09:16;;;;;;;;;;;19.60;91.10;19.70;98700.00;;;;342011;28;82484;-89
2022/05/24 00:09:28;;;;;;;;;;;19.60;91.20;19.60;98706.00;;;;341618;28;91253;-89
2022/05/24 00:09:40;;;;;;;;;;;19.60;91.20;19.60;98694.00;;;;342477;28;83461;-89
2022/05/24 00:09:52;;;;;;;;;;;19.60;91.20;19.60;98701.00;;;;343573;28;91159;-89
2022/05/24 00:10:04;;;;;;;;;;;19.60;91.30;19.60;98700.00;;;;343299;28;82444;-89
2022/05/24 00:10:19;;;;;;;;;;;19.60;91.30;19.60;98701.00;;;;343756;28;87650;-90
2022/05/24 00:10:31;;;;;;;;;;;19.50;91.40;19.60;98709.00;;;;343262;28;83368;-89
2022/05/24 00:10:43;;;;;;;;;;;19.50;91.40;19.60;98695.00;;;;345646;28;90485;-89
2022/05/24 00:10:55;;;;;;;;;;;19.50;91.40;19.60;98706.00;;;;345909;28;83293;-89
2022/05/24 00:11:07;;;;;;;;;;;19.50;91.30;19.60;98707.00;;;;344395;28;88020;-90
2022/05/24 00:11:18;;;;;;;;;;;19.50;91.30;19.50;98707.00;;;;347446;28;82369;-90
2022/05/24 00:11:30;;;;;;;;;;;19.50;91.20;19.50;98699.00;;;;342895;28;91576;-89
2022/05/24 00:11:42;;;;;;;;;;;19.50;91.20;19.50;98698.00;;;;340723;28;82434;-89
2022/05/24 00:11:54;;;;;;;;;;;19.50;91.20;19.60;98697.00;;;;344189;28;92425;-90
2022/05/24 00:12:06;;;;;;;;;;;19.50;91.20;19.60;98696.00;;;;346164;28;82641;-89
2022/05/24 00:12:18;;;;;;;;;;;19.50;91.30;19.60;98694.00;;;;341504;28;91820;-90
2022/05/24 00:12:30;;;;;;;;;;;19.50;91.30;19.60;98699.00;;;;341993;28;83274;-89
2022/05/24 00:12:42;;;;;;;;;;;19.50;91.30;19.60;98705.00;;;;347366;27;90313;-89
2022/05/24 00:12:54;;;;;;;;;;;19.50;91.30;19.70;98703.00;;;;343324;28;83314;-89
2022/05/24 00:13:06;;;;;;;;;;;19.50;91.40;19.60;98697.00;;;;344117;28;90231;-90
2022/05/24 00:13:17;;;;;;;;;;;19.50;91.40;19.60;98698.00;;;;347551;28;83204;-90
2022/05/24 00:13:29;;;;;;;;;;;19.50;91.50;19.60;98696.00;;;;342914;28;91367;-88
2022/05/24 00:13:41;;;;;;;;;;;19.50;91.50;19.60;98698.00;;;;341883;28;84141;-89
2022/05/24 00:13:53;;;;;;;;;;;19.50;91.50;19.60;98696.00;;;;347091;28;91564;-89
2022/05/24 00:14:04;;;;;;;;;;;19.50;91.50;19.60;98697.00;;;;346094;28;82476;-89
2022/05/24 00:15:19;;;;;;;;;;;19.50;91.50;19.60;98696.00;;;;342870;28;91595;-89
2022/05/24 00:15:19;;;;;;;;;;;19.50;91.60;19.50;98703.00;;;;344298;28;90157;-89
2022/05/24 00:15:32;;;;;;;;;;;19.50;91.60;19.50;98698.00;;;;344728;28;83382;-89
2022/05/24 00:15:43;;;;;;;;;;;19.40;91.50;19.60;98705.00;;;;342419;28;90169;-90
2022/05/24 00:15:56;;;;;;;;;;;19.50;91.60;19.60;98696.00;;;;345908;28;83220;-89
2022/05/24 00:16:08;;;;;;;;;;;19.50;91.60;19.70;98701.00;;;;341615;28;89232;-89
2022/05/24 00:16:21;;;;;;;;;;;19.50;91.60;19.70;98697.00;;;;344673;28;82712;-90
2022/05/24 00:16:33;;;;;;;;;;;19.50;91.60;19.70;98702.00;;;;345581;28;92438;-90
2022/05/24 00:16:44;;;;;;;;;;;19.50;91.60;19.60;98700.00;;;;344697;28;82375;-89
2022/05/24 00:16:56;;;;;;;;;;;19.50;91.70;19.60;98701.00;;;;345541;28;91346;-89
2022/05/24 00:17:08;;;;;;;;;;;19.50;91.70;19.60;98698.00;;;;344582;28;83380;-90
2022/05/24 00:17:20;;;;;;;;;;;19.50;91.80;19.60;98705.00;;;;342878;28;90840;-89
2022/05/24 00:17:32;;;;;;;;;;;19.50;91.70;19.60;98696.00;;;;344707;28;83384;-89
2022/05/24 00:17:44;;;;;;;;;;;19.50;91.70;19.60;98702.00;;;;347040;28;89060;-89
2022/05/24 00:18:00;;;;;;;;;;;19.50;91.70;19.70;98701.00;;;;343426;28;83394;-89
2022/05/24 00:18:14;;;;;;;;;;;19.50;91.70;19.60;98699.00;;;;342913;28;90269;-90
2022/05/24 00:18:28;;;;;;;;;;;19.50;91.80;19.60;98706.00;;;;344778;28;83377;-90
2022/05/24 00:18:39;;;;;;;;;;;19.40;91.70;19.60;98708.00;;;;342728;28;92725;-89
2022/05/24 00:18:52;;;;;;;;;;;19.50;91.80;19.60;98706.00;;;;343403;28;82373;-89
2022/05/24 00:19:04;;;;;;;;;;;19.50;91.70;19.60;98703.00;;;;342796;28;91366;-90
2022/05/24 00:19:15;;;;;;;;;;;19.50;91.70;19.60;98704.00;;;;343413;28;83338;-90
2022/05/24 00:19:27;;;;;;;;;;;19.50;91.70;19.60;98702.00;;;;342702;28;90406;-90
2022/05/24 00:19:39;;;;;;;;;;;19.50;91.70;19.60;98703.00;;;;340510;28;83472;-89
2022/05/24 00:19:51;;;;;;;;;;;19.50;91.70;19.60;98706.00;;;;342773;28;90647;-89
2022/05/24 00:20:03;;;;;;;;;;;19.50;91.60;19.60;98704.00;;;;344691;28;83381;-90
2022/05/24 00:20:15;;;;;;;;;;;19.50;91.70;19.60;98705.00;;;;344205;28;90896;-90
2022/05/24 00:20:31;;;;;;;;;;;19.50;91.70;19.50;98703.00;;;;343386;28;82474;-90
2022/05/24 00:20:52;;;;;;;;;;;19.50;91.80;19.60;98711.00;;;;342883;28;92259;-89
2022/05/24 00:21:04;;;;;;;;;;;19.50;91.90;19.70;98712.00;;;;346016;28;83384;-90
2022/05/24 00:21:16;;;;;;;;;;;19.50;91.80;19.60;98707.00;;;;344281;28;91913;-89
2022/05/24 00:21:28;;;;;;;;;;;19.50;91.80;19.70;98709.00;;;;343353;28;82441;-89
2022/05/24 00:21:39;;;;;;;;;;;19.50;91.80;19.60;98705.00;;;;343934;28;90299;-89
2022/05/24 00:21:51;;;;;;;;;;;19.50;91.70;19.60;98709.00;;;;343394;28;83379;-90
2022/05/24 00:22:03;;;;;;;;;;;19.50;91.80;19.50;98710.00;;;;341449;28;95742;-89
2022/05/24 00:22:15;;;;;;;;;;;19.50;91.80;19.50;98707.00;;;;341696;28;83449;-90
2022/05/24 00:22:27;;;;;;;;;;;19.50;91.80;19.60;98704.00;;;;342944;28;90457;-89
2022/05/24 00:22:39;;;;;;;;;;;19.50;91.80;19.60;98704.00;;;;344777;28;82409;-89
2022/05/24 00:22:51;;;;;;;;;;;19.50;91.80;19.60;98709.00;;;;346753;28;94745;-90
2022/05/24 00:23:03;;;;;;;;;;;19.50;91.80;19.70;98708.00;;;;344736;28;83274;-89
2022/05/24 00:23:15;;;;;;;;;;;19.50;91.80;19.70;98709.00;;;;342960;28;89791;-89
2022/05/24 00:23:28;;;;;;;;;;;19.50;91.80;19.60;98705.00;;;;343297;28;83193;-90
2022/05/24 00:23:40;;;;;;;;;;;19.50;91.80;19.60;98704.00;;;;345547;28;91223;-90
2022/05/24 00:23:52;;;;;;;;;;;19.50;91.90;19.50;98704.00;;;;347440;28;82426;-90
2022/05/24 00:24:04;;;;;;;;;;;19.50;91.90;19.50;98705.00;;;;345662;28;91168;-89
2022/05/24 00:24:16;;;;;;;;;;;19.50;91.90;19.60;98706.00;;;;347314;28;84270;-89
2022/05/24 00:24:28;;;;;;;;;;;19.50;91.90;19.50;98713.00;;;;344211;28;90915;-89
2022/05/24 00:24:40;;;;;;;;;;;19.50;91.90;19.50;98708.00;;;;345413;28;83379;-89
2022/05/24 00:24:52;;;;;;;;;;;19.50;91.90;19.60;98709.00;;;;341416;28;92602;-90
2022/05/24 00:25:04;;;;;;;;;;;19.50;91.90;19.50;98706.00;;;;344784;28;82387;-89
2022/05/24 00:25:16;;;;;;;;;;;19.50;91.90;19.50;98713.00;;;;342900;28;91696;-89
2022/05/24 00:25:28;;;;;;;;;;;19.50;91.90;19.60;98709.00;;;;341952;28;82353;-89
2022/05/24 00:25:45;;;;;;;;;;;19.50;91.90;19.60;98705.00;;;;345601;28;90242;-90
2022/05/24 00:25:59;;;;;;;;;;;19.50;91.90;19.60;98712.00;;;;346147;28;82232;-90
2022/05/24 00:26:15;;;;;;;;;;;19.50;92.20;19.60;98704.00;;;;345625;28;91560;-88
2022/05/24 00:26:31;;;;;;;;;;;19.50;91.90;19.60;98706.00;;;;341919;28;83354;-90
2022/05/24 00:26:43;;;;;;;;;;;19.50;91.90;19.60;98712.00;;;;342991;28;90279;-89
2022/05/24 00:26:54;;;;;;;;;;;19.50;91.90;19.70;98708.00;;;;344636;28;82387;-89
2022/05/24 00:27:07;;;;;;;;;;;19.50;91.70;19.80;98708.00;;;;342798;28;92632;-89
2022/05/24 00:27:19;;;;;;;;;;;19.50;91.50;19.80;98710.00;;;;346015;28;83487;-89
2022/05/24 00:27:30;;;;;;;;;;;19.50;91.50;19.80;98703.00;;;;340123;28;91176;-89
2022/05/24 00:27:42;;;;;;;;;;;19.50;91.60;19.70;98706.00;;;;343652;28;83475;-90
2022/05/24 00:27:54;;;;;;;;;;;19.50;91.70;19.70;98707.00;;;;344216;28;91278;-89
2022/05/24 00:28:06;;;;;;;;;;;19.50;91.70;19.70;98702.00;;;;344790;28;82239;-89
2022/05/24 00:28:18;;;;;;;;;;;19.50;91.70;19.70;98704.00;;;;342798;28;92143;-89
2022/05/24 00:28:30;;;;;;;;;;;19.50;91.70;19.70;98705.00;;;;343126;28;83533;-89
2022/05/24 00:28:42;;;;;;;;;;;19.50;91.70;19.80;98709.00;;;;344201;28;91198;-90
2022/05/24 00:28:54;;;;;;;;;;;19.50;91.70;19.70;98710.00;;;;341940;28;83227;-89
2022/05/24 00:29:06;;;;;;;;;;;19.50;91.70;19.70;98708.00;;;;344188;28;91389;-89
2022/05/24 00:29:18;;;;;;;;;;;19.50;91.70;19.70;98710.00;;;;343362;28;82478;-90
2022/05/24 00:29:29;;;;;;;;;;;19.50;91.90;19.70;98709.00;;;;344296;28;91339;-89
2022/05/24 00:29:41;;;;;;;;;;;19.50;91.70;19.70;98715.00;;;;343091;28;83198;-89
2022/05/24 00:29:53;;;;;;;;;;;19.50;91.70;19.70;98706.00;;;;344080;28;89896;-89
2022/05/24 00:30:06;;;;;;;;;;;19.50;91.70;19.70;98708.00;;;;342033;28;83325;-89
2022/05/24 00:30:18;;;;;;;;;;;19.50;91.70;19.70;98720.00;;;;344218;28;90533;-90
2022/05/24 00:30:30;;;;;;;;;;;19.50;91.70;19.70;98704.00;;;;343429;28;82668;-89
2022/05/24 00:30:43;;;;;;;;;;;19.50;91.60;19.70;98709.00;;;;342864;28;91226;-89
2022/05/24 00:30:54;;;;;;;;;;;19.50;91.60;19.60;98712.00;;;;342849;28;83430;-89
2022/05/24 00:31:06;;;;;;;;;;;19.50;91.60;19.70;98707.00;;;;342817;28;92419;-89
2022/05/24 00:31:18;;;;;;;;;;;19.50;91.60;19.70;98702.00;;;;346036;28;82378;-89
2022/05/24 00:31:30;;;;;;;;;;;19.50;91.60;19.70;98704.00;;;;345715;28;90283;-89
2022/05/24 00:31:42;;;;;;;;;;;19.50;91.60;19.70;98710.00;;;;344601;28;82393;-89
2022/05/24 00:31:54;;;;;;;;;;;19.50;91.60;19.80;98701.00;;;;344257;28;90066;-89
2022/05/24 00:32:06;;;;;;;;;;;19.50;91.60;19.70;98706.00;;;;341992;28;83335;-89
2022/05/24 00:32:18;;;;;;;;;;;19.50;91.60;19.70;98704.00;;;;344123;28;91862;-89
2022/05/24 00:32:30;;;;;;;;;;;19.50;91.60;19.60;98706.00;;;;343394;28;83443;-88
2022/05/24 00:32:42;;;;;;;;;;;19.50;91.60;19.60;98703.00;;;;344263;28;91437;-89
2022/05/24 00:32:54;;;;;;;;;;;19.50;91.50;19.70;98702.00;;;;340568;28;83345;-89
2022/05/24 00:33:06;;;;;;;;;;;19.50;91.50;19.70;98706.00;;;;341438;28;92286;-89
2022/05/24 00:33:18;;;;;;;;;;;19.50;91.50;19.80;98707.00;;;;344462;28;83254;-89
2022/05/24 00:33:31;;;;;;;;;;;19.50;91.50;19.70;98703.00;;;;344128;28;91505;-89
2022/05/24 00:33:43;;;;;;;;;;;19.50;91.40;19.70;98707.00;;;;345069;28;83532;-89
2022/05/24 00:33:55;;;;;;;;;;;19.50;91.50;19.70;98708.00;;;;344116;28;90538;-89
2022/05/24 00:34:07;;;;;;;;;;;19.50;91.50;19.70;98712.00;;;;343439;28;83303;-89
2022/05/24 00:34:19;;;;;;;;;;;19.50;91.50;19.60;98714.00;;;;345534;28;90413;-89
2022/05/24 00:34:31;;;;;;;;;;;19.50;91.50;19.60;98707.00;;;;344731;28;83417;-89
2022/05/24 00:34:42;;;;;;;;;;;19.50;91.50;19.50;98712.00;;;;346967;28;91997;-89
2022/05/24 00:34:55;;;;;;;;;;;19.50;91.50;19.50;98712.00;;;;344635;28;83361;-89
2022/05/24 00:35:07;;;;;;;;;;;19.50;91.60;19.50;98717.00;;;;345549;28;91894;-90
2022/05/24 00:35:19;;;;;;;;;;;19.50;91.60;19.50;98715.00;;;;343384;28;83393;-89
2022/05/24 00:35:31;;;;;;;;;;;19.50;91.70;19.50;98706.00;;;;344336;28;91314;-89
2022/05/24 00:35:43;;;;;;;;;;;19.50;91.70;19.50;98718.00;;;;346034;28;83475;-89
2022/05/24 00:35:54;;;;;;;;;;;19.50;91.70;19.50;98717.00;;;;345464;28;91529;-89
2022/05/24 00:36:06;;;;;;;;;;;19.50;91.70;19.40;98709.00;;;;344702;28;83416;-89
2022/05/24 00:36:18;;;;;;;;;;;19.50;91.60;19.40;98713.00;;;;345416;28;91503;-89
2022/05/24 00:36:30;;;;;;;;;;;19.40;91.60;19.40;98713.00;;;;344697;28;82514;-89
2022/05/24 00:36:42;;;;;;;;;;;19.40;91.60;19.40;98706.00;;;;345012;28;91286;-89
2022/05/24 00:36:54;;;;;;;;;;;19.40;91.50;19.40;98716.00;;;;341871;28;83409;-89
2022/05/24 00:37:05;;;;;;;;;;;19.40;91.50;19.40;98711.00;;;;341503;28;91342;-89
2022/05/24 00:37:19;;;;;;;;;;;19.40;91.50;19.50;98714.00;;;;343331;28;83441;-89
2022/05/24 00:37:30;;;;;;;;;;;19.40;91.50;19.50;98705.00;;;;341552;28;91259;-89
2022/05/24 00:37:43;;;;;;;;;;;19.40;91.50;19.50;98715.00;;;;343478;28;82468;-90
2022/05/24 00:37:54;;;;;;;;;;;19.40;91.50;19.40;98716.00;;;;342853;28;91541;-89
2022/05/24 00:38:09;;;;;;;;;;;19.40;91.60;19.40;98720.00;;;;343301;28;83306;-89
2022/05/24 00:38:36;;;;;;;;;;;19.40;91.60;19.40;98714.00;;;;342853;28;91416;-90
2022/05/24 00:38:48;;;;;;;;;;;19.40;91.70;19.40;98719.00;;;;341896;28;83408;-89
2022/05/24 00:39:00;;;;;;;;;;;19.40;91.70;19.40;98720.00;;;;342733;28;90375;-89
2022/05/24 00:39:11;;;;;;;;;;;19.40;91.70;19.40;98717.00;;;;341961;28;83333;-89
2022/05/24 00:39:23;;;;;;;;;;;19.40;91.70;19.50;98716.00;;;;342771;28;92528;-89
2022/05/24 00:39:35;;;;;;;;;;;19.40;91.70;19.40;98718.00;;;;343355;28;82472;-89
2022/05/24 00:39:47;;;;;;;;;;;19.40;91.70;19.40;98722.00;;;;345152;28;90115;-89
2022/05/24 00:39:59;;;;;;;;;;;19.30;91.70;19.40;98715.00;;;;341896;28;83361;-89
2022/05/24 00:40:37;;;;;;;;;;;19.30;91.70;19.40;98724.00;;;;342954;28;90349;-89
2022/05/24 00:41:02;;;;;;;;;;;19.40;91.80;19.50;98728.00;;;;344652;28;82552;-89
2022/05/24 00:41:27;;;;;;;;;;;19.30;91.70;19.40;98722.00;;;;342835;28;91480;-89
2022/05/24 00:41:41;;;;;;;;;;;19.30;91.80;19.40;98722.00;;;;340548;28;83491;-89
2022/05/24 00:42:02;;;;;;;;;;;19.30;91.80;19.50;98721.00;;;;342948;28;87997;-89
2022/05/24 00:42:17;;;;;;;;;;;19.40;91.90;19.50;98725.00;;;;343297;28;82404;-89
2022/05/24 00:42:30;;;;;;;;;;;19.40;91.90;19.50;98720.00;;;;342835;28;92451;-90
2022/05/24 00:42:42;;;;;;;;;;;19.30;91.80;19.40;98718.00;;;;342348;28;82455;-89
2022/05/24 00:42:54;;;;;;;;;;;19.30;91.80;19.40;98725.00;;;;341524;28;91606;-89
2022/05/24 00:43:10;;;;;;;;;;;19.30;91.90;19.50;98726.00;;;;341915;28;83380;-89
2022/05/24 00:43:30;;;;;;;;;;;19.30;91.90;19.60;98721.00;;;;340174;28;92423;-89
2022/05/24 00:44:08;;;;;;;;;;;19.30;92.10;19.60;98724.00;;;;343294;28;83266;-90
2022/05/24 00:44:23;;;;;;;;;;;19.40;91.70;19.60;98722.00;;;;344113;28;91259;-89
2022/05/24 00:44:43;;;;;;;;;;;19.40;91.70;19.60;98724.00;;;;344765;28;82415;-89
2022/05/24 00:45:19;;;;;;;;;;;19.40;91.70;19.50;98714.00;;;;344254;28;88260;-89
2022/05/24 00:45:34;;;;;;;;;;;19.40;91.70;19.70;98727.00;;;;344740;28;82307;-89
2022/05/24 00:45:48;;;;;;;;;;;19.40;91.30;19.60;98709.00;;;;342431;28;89283;-89
2022/05/24 00:46:09;;;;;;;;;;;19.40;91.40;19.50;98718.00;;;;343997;28;82544;-89
2022/05/24 00:46:42;;;;;;;;;;;19.40;91.60;19.50;98722.00;;;;344034;28;91408;-87
2022/05/24 00:47:02;;;;;;;;;;;19.40;91.70;19.40;98715.00;;;;344665;28;83344;-89
2022/05/24 00:47:19;;;;;;;;;;;19.40;91.40;19.50;98720.00;;;;342967;28;91643;-89
2022/05/24 00:47:40;;;;;;;;;;;19.40;91.40;19.50;98718.00;;;;343370;28;82435;-89
2022/05/24 00:47:54;;;;;;;;;;;19.40;91.50;19.40;98714.00;;;;344239;28;91601;-89
2022/05/24 00:48:08;;;;;;;;;;;19.40;91.50;19.40;98715.00;;;;343344;28;82480;-89
2022/05/24 00:48:25;;;;;;;;;;;19.40;91.30;19.40;98716.00;;;;342813;28;91861;-89
2022/05/24 00:48:43;;;;;;;;;;;19.40;91.30;19.40;98716.00;;;;344759;28;82339;-89
2022/05/24 00:49:06;;;;;;;;;;;19.30;91.20;19.30;98713.00;;;;345545;28;92463;-89
2022/05/24 00:49:25;;;;;;;;;;;19.30;91.20;19.30;98711.00;;;;344688;28;83283;-89
2022/05/24 00:49:47;;;;;;;;;;;19.30;91.20;19.30;98701.00;;;;342859;28;88726;-89
2022/05/24 00:50:05;;;;;;;;;;;19.30;91.20;19.30;98716.00;;;;344671;28;83367;-89
2022/05/24 00:50:37;;;;;;;;;;;19.30;91.30;19.20;98714.00;;;;344197;28;91499;-89
2022/05/24 00:50:51;;;;;;;;;;;19.20;91.30;19.20;98712.00;;;;344680;28;83379;-89
2022/05/24 00:51:05;;;;;;;;;;;19.20;91.40;19.20;98710.00;;;;344183;28;91507;-89
2022/05/24 00:51:28;;;;;;;;;;;19.20;91.40;19.20;98705.00;;;;344720;28;83224;-89
2022/05/24 00:51:54;;;;;;;;;;;19.20;91.40;19.20;98713.00;;;;343958;28;91458;-89
2022/05/24 00:52:17;;;;;;;;;;;19.20;91.40;19.20;98718.00;;;;341736;28;83317;-89
2022/05/24 00:52:49;;;;;;;;;;;19.10;91.40;19.20;98709.00;;;;342752;28;92436;-89
2022/05/24 00:53:40;;;;;;;;;;;19.20;91.40;19.20;98716.00;;;;343142;28;82504;-89
2022/05/24 00:53:53;;;;;;;;;;;19.20;91.30;19.20;98723.00;;;;341532;28;91263;-89
2022/05/24 00:54:05;;;;;;;;;;;19.20;91.50;19.20;98718.00;;;;338765;28;82447;-89
2022/05/24 00:54:16;;;;;;;;;;;19.10;91.40;19.20;98713.00;;;;341477;28;90658;-89
2022/05/24 00:54:28;;;;;;;;;;;19.10;91.50;19.20;98712.00;;;;343358;28;83386;-89
2022/05/24 00:54:44;;;;;;;;;;;19.10;91.50;19.20;98714.00;;;;341385;28;90930;-89
2022/05/24 00:54:57;;;;;;;;;;;19.10;91.60;19.20;98717.00;;;;341923;28;83428;-89
2022/05/24 00:55:09;;;;;;;;;;;19.10;91.50;19.20;98716.00;;;;342833;28;90394;-89
2022/05/24 00:55:22;;;;;;;;;;;19.10;91.50;19.20;98715.00;;;;343205;28;82488;-88
2022/05/24 00:55:46;;;;;;;;;;;19.10;91.60;19.20;98719.00;;;;341380;28;92593;-89
2022/05/24 00:56:20;;;;;;;;;;;19.10;91.50;19.20;98723.00;;;;343340;28;83292;-89
2022/05/24 00:56:41;;;;;;;;;;;19.10;91.60;19.10;98722.00;;;;338921;28;90508;-89
2022/05/24 00:56:58;;;;;;;;;;;19.10;91.70;19.20;98722.00;;;;340484;28;82469;-88
2022/05/24 00:57:17;;;;;;;;;;;19.10;91.70;19.20;98721.00;;;;341475;28;89475;-89
2022/05/24 00:57:34;;;;;;;;;;;19.10;91.70;19.20;98716.00;;;;343246;28;82326;-88
2022/05/24 00:57:54;;;;;;;;;;;19.10;91.70;19.20;98726.00;;;;339902;28;90326;-89
2022/05/24 00:58:11;;;;;;;;;;;19.10;91.70;19.20;98729.00;;;;339240;28;83885;-89
2022/05/24 00:58:31;;;;;;;;;;;19.10;91.80;19.20;98727.00;;;;340142;28;91591;-89
2022/05/24 00:58:51;;;;;;;;;;;19.10;91.80;19.20;98730.00;;;;341956;28;82630;-89
2022/05/24 00:59:04;;;;;;;;;;;19.10;91.70;19.10;98721.00;;;;340072;28;91103;-89
2022/05/24 00:59:25;;;;;;;;;;;19.10;91.80;19.20;98728.00;;;;340425;28;83286;-89
2022/05/24 00:59:50;;;;;;;;;;;19.10;91.80;19.20;98732.00;;;;340106;28;90391;-89
2022/05/24 01:00:10;;;;;;;;;;;19.10;91.80;19.10;98723.00;;;;340541;28;83580;-89
2022/05/24 01:00:22;;;;;;;;;;;19.10;91.80;19.10;98723.00;;;;338801;28;90266;-89
2022/05/24 01:00:34;;;;;;;;;;;19.10;91.80;19.10;98723.00;;;;340567;28;82614;-89
2022/05/24 01:00:45;;;;;;;;;;;19.10;91.80;19.10;98726.00;;;;341009;28;90116;-89
2022/05/24 01:00:59;;;;;;;;;;;19.10;91.80;19.10;98730.00;;;;340441;28;82752;-89
2022/05/24 01:01:27;;;;;;;;;;;19.00;91.80;19.10;98727.00;;;;341502;28;88938;-89
2022/05/24 01:01:43;;;;;;;;;;;19.00;91.80;19.10;98730.00;;;;341757;28;83443;-89
2022/05/24 01:01:55;;;;;;;;;;;19.10;91.80;19.20;98730.00;;;;341349;28;92519;-89
2022/05/24 01:02:07;;;;;;;;;;;19.10;91.90;19.20;98726.00;;;;343213;28;83408;-90
2022/05/24 01:02:19;;;;;;;;;;;19.10;91.90;19.20;98733.00;;;;341383;28;90949;-89
2022/05/24 01:02:31;;;;;;;;;;;19.00;91.90;19.20;98723.00;;;;341973;28;83386;-89
2022/05/24 01:02:43;;;;;;;;;;;19.10;91.90;19.10;98725.00;;;;340007;28;91237;-89
2022/05/24 01:02:55;;;;;;;;;;;19.10;91.90;19.10;98735.00;;;;343128;28;83458;-89
2022/05/24 01:03:07;;;;;;;;;;;19.00;91.90;19.10;98734.00;;;;340156;28;90392;-89
2022/05/24 01:03:19;;;;;;;;;;;19.10;91.90;19.10;98725.00;;;;340562;28;83347;-89
2022/05/24 01:03:31;;;;;;;;;;;19.10;91.90;19.10;98727.00;;;;341453;28;90796;-89
2022/05/24 01:03:43;;;;;;;;;;;19.10;91.90;19.10;98727.00;;;;341383;28;83322;-89
2022/05/24 01:03:54;;;;;;;;;;;19.00;91.90;19.10;98733.00;;;;340018;28;90226;-89
2022/05/24 01:04:07;;;;;;;;;;;19.00;91.90;19.10;98722.00;;;;340563;28;83284;-89
2022/05/24 01:04:22;;;;;;;;;;;19.10;91.90;19.20;98720.00;;;;338658;28;91734;-89
2022/05/24 01:04:34;;;;;;;;;;;19.00;91.80;19.20;98730.00;;;;340658;28;82489;-89
2022/05/24 01:04:45;;;;;;;;;;;19.10;91.90;19.10;98731.00;;;;342378;28;90534;-89
2022/05/24 01:04:58;;;;;;;;;;;19.00;91.80;19.10;98734.00;;;;342949;28;82755;-89
2022/05/24 01:05:15;;;;;;;;;;;19.00;91.90;19.10;98729.00;;;;340091;28;90309;-89
2022/05/24 01:05:29;;;;;;;;;;;19.00;91.90;19.10;98730.00;;;;339180;28;83434;-89
2022/05/24 01:05:43;;;;;;;;;;;19.10;92.00;19.10;98734.00;;;;338781;28;91174;-89
2022/05/24 01:05:54;;;;;;;;;;;19.00;91.90;19.10;98730.00;;;;339162;28;83417;-89
2022/05/24 01:06:06;;;;;;;;;;;19.00;91.90;19.10;98723.00;;;;341390;28;91894;-89
2022/05/24 01:06:18;;;;;;;;;;;19.00;91.90;19.10;98731.00;;;;337801;28;83439;-89
2022/05/24 01:06:30;;;;;;;;;;;19.00;92.00;19.10;98727.00;;;;338883;28;91159;-89
2022/05/24 01:06:41;;;;;;;;;;;19.10;92.10;19.10;98729.00;;;;339236;28;83281;-89
2022/05/24 01:06:53;;;;;;;;;;;19.00;92.00;19.10;98726.00;;;;340108;28;91209;-89
2022/05/24 01:07:05;;;;;;;;;;;19.00;92.00;19.10;98721.00;;;;339047;28;83478;-89
2022/05/24 01:07:17;;;;;;;;;;;19.00;92.00;19.20;98716.00;;;;342911;28;91373;-89
2022/05/24 01:07:28;;;;;;;;;;;19.00;91.90;19.20;98726.00;;;;343287;28;83389;-89
2022/05/24 01:07:40;;;;;;;;;;;19.00;91.90;19.30;98722.00;;;;340096;28;91453;-89
2022/05/24 01:07:52;;;;;;;;;;;19.00;91.90;19.20;98721.00;;;;339268;28;82384;-89
2022/05/24 01:08:04;;;;;;;;;;;19.00;91.90;19.20;98724.00;;;;337419;28;92419;-89
2022/05/24 01:08:16;;;;;;;;;;;19.10;92.00;19.20;98724.00;;;;339168;28;83373;-89
2022/05/24 01:08:27;;;;;;;;;;;19.00;92.00;19.30;98723.00;;;;337444;28;92317;-89
2022/05/24 01:08:40;;;;;;;;;;;19.10;92.00;19.40;98719.00;;;;337932;28;83374;-89
2022/05/24 01:08:52;;;;;;;;;;;19.10;91.90;19.40;98730.00;;;;340125;28;92265;-89
2022/05/24 01:09:11;;;;;;;;;;;19.10;91.90;19.40;98722.00;;;;340569;28;82512;-89
2022/05/24 01:09:44;;;;;;;;;;;19.10;91.90;19.30;98725.00;;;;340079;28;89072;-89
2022/05/24 01:10:00;;;;;;;;;;;19.10;91.90;19.40;98714.00;;;;340328;28;83367;-89
2022/05/24 01:10:24;;;;;;;;;;;19.10;91.90;19.40;98720.00;;;;340081;28;91781;-89
2022/05/24 01:10:48;;;;;;;;;;;19.10;92.00;19.30;98715.00;;;;337928;28;83343;-89